sensor_id;sensor_type;location;lat;lon;timestamp;temperature;humidity
33508;DHT22;25568;37.410;-122.096;2022-08-21T05:12:40;21.30;69.70
33508;DHT22;25568;37.410;-122.096;2022-08-21T05:15:09;21.90;83.20
33508;DHT22;25568;37.410;-122.096;2022-08-21T05:17:38;21.90;82.90
33508;DHT22;25568;37.410;-122.096;2022-08-21T05:20:06;21.90;83.20
33508;DHT22;25568;37.410;-122.096;2022-08-21T05:22:34;21.90;82.50
33508;DHT22;25568;37.410;-122.096;2022-08-21T05:25:03;22.00;82.50
33508;DHT22;25568;37.410;-122.096;2022-08-21T05:27:31;22.00;82.40
33508;DHT22;25568;37.410;-122.096;2022-08-21T05:30:00;22.00;82.30
33508;DHT22;25568;37.410;-122.096;2022-08-21T05:32:28;22.00;82.00
33508;DHT22;25568;37.410;-122.096;2022-08-21T05:34:56;22.00;81.90
33508;DHT22;25568;37.410;-122.096;2022-08-21T05:37:24;22.00;81.70
33508;DHT22;25568;37.410;-122.096;2022-08-21T05:39:52;22.00;81.50
33508;DHT22;25568;37.410;-122.096;2022-08-21T05:42:20;22.00;81.50
33508;DHT22;25568;37.410;-122.096;2022-08-21T05:44:48;22.00;81.30
33508;DHT22;25568;37.410;-122.096;2022-08-21T05:47:18;22.00;81.20
33508;DHT22;25568;37.410;-122.096;2022-08-21T05:49:46;22.00;81.10
33508;DHT22;25568;37.410;-122.096;2022-08-21T05:52:18;22.00;81.00
33508;DHT22;25568;37.410;-122.096;2022-08-21T05:54:46;22.00;80.90
33508;DHT22;25568;37.410;-122.096;2022-08-21T05:57:13;22.00;80.90
33508;DHT22;25568;37.410;-122.096;2022-08-21T05:59:41;22.10;80.90
33508;DHT22;25568;37.410;-122.096;2022-08-21T06:02:09;22.10;80.90
33508;DHT22;25568;37.410;-122.096;2022-08-21T06:04:39;22.00;80.70
33508;DHT22;25568;37.410;-122.096;2022-08-21T06:07:07;22.10;80.80
33508;DHT22;25568;37.410;-122.096;2022-08-21T06:09:35;22.10;80.80
33508;DHT22;25568;37.410;-122.096;2022-08-21T06:12:04;22.10;80.70
33508;DHT22;25568;37.410;-122.096;2022-08-21T06:14:32;22.10;80.70
33508;DHT22;25568;37.410;-122.096;2022-08-21T06:17:01;22.10;80.70
33508;DHT22;25568;37.410;-122.096;2022-08-21T06:19:29;22.10;80.60
33508;DHT22;25568;37.410;-122.096;2022-08-21T06:21:59;22.10;80.70
33508;DHT22;25568;37.410;-122.096;2022-08-21T06:24:27;22.10;80.60
33508;DHT22;25568;37.410;-122.096;2022-08-21T06:26:55;22.10;80.60
33508;DHT22;25568;37.410;-122.096;2022-08-21T06:29:24;22.10;80.60
33508;DHT22;25568;37.410;-122.096;2022-08-21T06:31:51;22.10;80.50
33508;DHT22;25568;37.410;-122.096;2022-08-21T06:34:19;22.10;80.60
33508;DHT22;25568;37.410;-122.096;2022-08-21T06:36:47;22.10;80.60
33508;DHT22;25568;37.410;-122.096;2022-08-21T06:39:17;22.10;80.50
33508;DHT22;25568;37.410;-122.096;2022-08-21T06:41:45;22.10;80.50
33508;DHT22;25568;37.410;-122.096;2022-08-21T06:44:15;22.10;80.50
33508;DHT22;25568;37.410;-122.096;2022-08-21T06:46:43;22.10;80.40
33508;DHT22;25568;37.410;-122.096;2022-08-21T06:49:11;22.10;80.40
33508;DHT22;25568;37.410;-122.096;2022-08-21T06:51:39;22.10;80.40
33508;DHT22;25568;37.410;-122.096;2022-08-21T06:54:07;22.10;80.40
33508;DHT22;25568;37.410;-122.096;2022-08-21T06:56:37;22.10;80.40
33508;DHT22;25568;37.410;-122.096;2022-08-21T06:59:05;22.10;80.40
33508;DHT22;25568;37.410;-122.096;2022-08-21T07:01:33;22.10;79.80
33508;DHT22;25568;37.410;-122.096;2022-08-21T07:06:29;22.10;79.40
33508;DHT22;25568;37.410;-122.096;2022-08-21T07:08:58;21.80;69.50
33508;DHT22;25568;37.410;-122.096;2022-08-21T18:34:19;21.60;68.00
33508;DHT22;25568;37.410;-122.096;2022-08-21T18:36:48;19.80;85.00
33508;DHT22;25568;37.410;-122.096;2022-08-21T18:39:17;19.80;85.50
33508;DHT22;25568;37.410;-122.096;2022-08-21T18:41:45;19.80;82.90
33508;DHT22;25568;37.410;-122.096;2022-08-21T18:44:14;19.70;77.00
33508;DHT22;25568;37.410;-122.096;2022-08-21T18:46:43;19.60;73.30
33508;DHT22;25568;37.410;-122.096;2022-08-21T18:49:13;19.50;71.00
33508;DHT22;25568;37.410;-122.096;2022-08-21T18:51:42;19.40;69.70
33508;DHT22;25568;37.410;-122.096;2022-08-21T18:54:10;19.40;68.80
33508;DHT22;25568;37.410;-122.096;2022-08-21T18:56:38;19.40;68.20
33508;DHT22;25568;37.410;-122.096;2022-08-21T18:59:07;19.40;67.70
33508;DHT22;25568;37.410;-122.096;2022-08-21T19:01:35;19.30;67.20
33508;DHT22;25568;37.410;-122.096;2022-08-21T19:04:03;19.30;66.90
33508;DHT22;25568;37.410;-122.096;2022-08-21T19:06:31;19.30;66.50
33508;DHT22;25568;37.410;-122.096;2022-08-21T19:09:02;19.20;66.20
33508;DHT22;25568;37.410;-122.096;2022-08-21T19:13:59;19.20;66.70
33508;DHT22;25568;37.410;-122.096;2022-08-21T19:16:27;19.30;68.00
33508;DHT22;25568;37.410;-122.096;2022-08-21T19:18:55;19.30;69.50
33508;DHT22;25568;37.410;-122.096;2022-08-21T19:21:23;19.30;70.50
33508;DHT22;25568;37.410;-122.096;2022-08-21T19:23:51;19.30;73.10
33508;DHT22;25568;37.410;-122.096;2022-08-21T19:26:22;19.40;77.10
33508;DHT22;25568;37.410;-122.096;2022-08-21T19:28:51;19.50;80.30
33508;DHT22;25568;37.410;-122.096;2022-08-21T19:31:20;19.60;83.60
33508;DHT22;25568;37.410;-122.096;2022-08-21T19:33:49;19.70;84.70
33508;DHT22;25568;37.410;-122.096;2022-08-21T19:36:18;19.80;85.00
33508;DHT22;25568;37.410;-122.096;2022-08-21T19:38:46;19.90;86.10
33508;DHT22;25568;37.410;-122.096;2022-08-21T19:41:14;20.00;87.40
33508;DHT22;25568;37.410;-122.096;2022-08-21T19:43:46;20.00;88.20
33508;DHT22;25568;37.410;-122.096;2022-08-21T19:46:18;20.00;89.30
33508;DHT22;25568;37.410;-122.096;2022-08-21T19:48:47;20.10;89.70
33508;DHT22;25568;37.410;-122.096;2022-08-21T19:51:15;20.10;90.20
33508;DHT22;25568;37.410;-122.096;2022-08-21T19:53:43;20.20;90.30
33508;DHT22;25568;37.410;-122.096;2022-08-21T19:56:13;20.20;90.50
33508;DHT22;25568;37.410;-122.096;2022-08-21T19:58:42;20.30;90.70
33508;DHT22;25568;37.410;-122.096;2022-08-21T20:01:13;20.30;90.80
33508;DHT22;25568;37.410;-122.096;2022-08-21T20:03:41;20.40;90.90
33508;DHT22;25568;37.410;-122.096;2022-08-21T20:06:09;20.40;91.10
33508;DHT22;25568;37.410;-122.096;2022-08-21T20:08:37;20.40;90.80
33508;DHT22;25568;37.410;-122.096;2022-08-21T20:11:05;20.50;91.00
33508;DHT22;25568;37.410;-122.096;2022-08-21T20:13:33;20.50;91.00
33508;DHT22;25568;37.410;-122.096;2022-08-21T20:16:03;20.60;91.00
33508;DHT22;25568;37.410;-122.096;2022-08-21T20:18:34;20.60;91.00
33508;DHT22;25568;37.410;-122.096;2022-08-21T20:21:02;20.70;91.00
33508;DHT22;25568;37.410;-122.096;2022-08-21T20:23:31;20.70;90.90
33508;DHT22;25568;37.410;-122.096;2022-08-21T20:25:59;20.70;90.90
33508;DHT22;25568;37.410;-122.096;2022-08-21T22:02:15;20.80;90.90
33508;DHT22;25568;37.410;-122.096;2022-08-21T22:04:51;21.40;90.00
33508;DHT22;25568;37.410;-122.096;2022-08-21T23:21:47;21.40;90.00
33508;DHT22;25568;37.410;-122.096;2022-08-21T23:24:24;21.40;87.70
33508;DHT22;25568;37.410;-122.096;2022-08-21T23:26:55;21.50;88.60
33508;DHT22;25568;37.410;-122.096;2022-08-21T23:29:27;21.50;88.30
33508;DHT22;25568;37.410;-122.096;2022-08-21T23:31:58;21.50;88.20
33508;DHT22;25568;37.410;-122.096;2022-08-21T23:34:32;21.60;88.10
33508;DHT22;25568;37.410;-122.096;2022-08-21T23:37:12;21.60;88.00
33508;DHT22;25568;37.410;-122.096;2022-08-21T23:40:03;21.70;87.80
33508;DHT22;25568;37.410;-122.096;2022-08-21T23:47:33;21.70;87.70
33508;DHT22;25568;37.410;-122.096;2022-08-21T23:50:04;21.80;84.00
33508;DHT22;25568;37.410;-122.096;2022-08-21T23:52:39;21.60;79.80
33508;DHT22;25568;37.410;-122.096;2022-08-21T23:55:15;21.50;76.50
33508;DHT22;25568;37.410;-122.096;2022-08-21T23:57:48;21.30;74.80
